createdAt,value
2017-11-16T00:02:27.590Z,30.57
2017-11-16T00:04:58.452Z,30.90
2017-11-16T00:07:28.325Z,31.07
2017-11-16T00:09:58.197Z,29.30
2017-11-16T00:12:28.042Z,30.80
2017-11-16T00:14:57.917Z,29.70
2017-11-16T00:17:27.850Z,27.37
2017-11-16T00:19:57.715Z,29.37
2017-11-16T00:22:27.594Z,28.27
2017-11-16T00:24:57.452Z,29.67
2017-11-16T00:27:27.323Z,30.57
2017-11-16T00:29:57.211Z,32.13
2017-11-16T00:32:27.106Z,33.50
2017-11-16T00:34:56.990Z,33.00
2017-11-16T00:37:26.844Z,34.13
2017-11-16T00:39:56.718Z,37.97
2017-11-16T00:42:26.594Z,36.33
2017-11-16T00:44:56.462Z,36.70
2017-11-16T00:47:26.347Z,38.40
2017-11-16T00:49:56.192Z,40.97
2017-11-16T00:52:26.074Z,41.47
2017-11-16T00:54:55.940Z,42.70
2017-11-16T00:57:26.201Z,43.40
2017-11-16T00:59:56.061Z,45.57
2017-11-16T01:02:25.944Z,47.63
2017-11-16T01:04:55.909Z,46.83
2017-11-16T01:07:25.799Z,47.17
2017-11-16T01:09:55.655Z,47.53
2017-11-16T01:12:25.615Z,49.07
2017-11-16T01:14:55.483Z,49.07
2017-11-16T01:17:25.354Z,47.70
2017-11-16T01:19:55.235Z,54.83
2017-11-16T01:22:25.119Z,50.50
2017-11-16T01:24:54.996Z,57.10
2017-11-16T01:27:24.859Z,51.13
2017-11-16T01:29:54.803Z,46.90
2017-11-16T01:32:24.662Z,53.40
2017-11-16T01:34:54.540Z,53.70
2017-11-16T01:37:24.427Z,55.27
2017-11-16T01:39:54.299Z,56.93
2017-11-16T01:42:24.184Z,60.10
2017-11-16T01:45:02.218Z,59.93
2017-11-16T01:47:32.253Z,55.70
2017-11-16T01:50:02.120Z,54.80
2017-11-16T01:52:32.015Z,56.43
2017-11-16T01:55:01.999Z,55.53
2017-11-16T01:57:31.908Z,58.10
2017-11-16T02:00:02.217Z,58.03
2017-11-16T02:02:39.961Z,58.33
2017-11-16T02:05:09.834Z,57.73
2017-11-16T02:07:39.780Z,56.00
2017-11-16T02:10:09.656Z,52.67
2017-11-16T02:12:39.530Z,54.10
2017-11-16T02:15:09.398Z,51.97
2017-11-16T02:17:39.251Z,52.60
2017-11-16T02:20:09.186Z,56.57
2017-11-16T02:22:39.031Z,53.83
2017-11-16T02:25:08.906Z,55.07
2017-11-16T02:27:38.759Z,59.83
2017-11-16T02:30:08.727Z,56.53
2017-11-16T02:32:38.616Z,56.70
2017-11-16T02:35:08.471Z,57.50
2017-11-16T02:37:38.308Z,56.43
2017-11-16T02:40:08.187Z,52.30
2017-11-16T02:42:38.051Z,56.77
2017-11-16T02:45:07.904Z,54.70
2017-11-16T02:47:37.776Z,54.03
2017-11-16T02:50:07.639Z,57.50
2017-11-16T02:52:37.526Z,53.33
2017-11-16T02:55:07.441Z,54.30
2017-11-16T02:57:37.470Z,53.60
2017-11-16T03:00:07.339Z,58.30
2017-11-16T03:02:37.196Z,54.07
2017-11-16T03:05:07.083Z,56.50
2017-11-16T03:07:36.978Z,55.53
2017-11-16T03:10:07.809Z,54.07
2017-11-16T03:12:37.664Z,55.70
2017-11-16T03:15:07.541Z,52.80
2017-11-16T03:17:38.239Z,55.53
2017-11-16T03:20:08.126Z,53.07
2017-11-16T03:22:38.007Z,55.97
2017-11-16T03:25:07.859Z,53.70
2017-11-16T03:27:37.742Z,54.27
2017-11-16T03:30:07.590Z,53.40
2017-11-16T03:32:37.758Z,53.63
2017-11-16T03:35:07.618Z,52.23
2017-11-16T03:37:37.618Z,53.17
2017-11-16T03:40:08.168Z,50.40
2017-11-16T03:42:38.022Z,52.83
2017-11-16T03:45:07.893Z,55.60
2017-11-16T03:47:37.774Z,47.83
2017-11-16T03:50:07.664Z,52.90
2017-11-16T03:52:37.551Z,51.37
2017-11-16T03:55:07.431Z,51.03
2017-11-16T03:57:37.290Z,52.00
2017-11-16T04:00:07.142Z,52.70
2017-11-16T04:02:37.041Z,51.17
2017-11-16T04:05:06.894Z,53.33
2017-11-16T04:07:36.787Z,51.70
2017-11-16T04:10:06.643Z,49.27
2017-11-16T04:12:36.515Z,49.93
2017-11-16T04:15:06.383Z,48.67
2017-11-16T04:17:36.276Z,48.97
2017-11-16T04:20:06.755Z,48.97
2017-11-16T04:22:36.603Z,47.47
2017-11-16T04:25:06.471Z,48.50
2017-11-16T04:27:36.316Z,47.23
2017-11-16T04:30:06.634Z,48.37
2017-11-16T04:32:36.594Z,47.30
2017-11-16T04:35:06.447Z,44.20
2017-11-16T04:37:36.352Z,45.17
2017-11-16T04:40:06.198Z,43.60
2017-11-16T04:42:36.055Z,42.70
2017-11-16T04:45:05.939Z,42.00
2017-11-16T04:47:35.828Z,44.47
2017-11-16T04:50:05.720Z,40.37
2017-11-16T04:52:35.587Z,40.43
2017-11-16T04:55:05.460Z,39.90
2017-11-16T04:57:36.214Z,41.03
2017-11-16T05:00:06.590Z,42.73
2017-11-16T05:02:36.475Z,41.80
2017-11-16T05:05:06.347Z,42.30
2017-11-16T05:07:36.285Z,42.87
2017-11-16T05:10:06.725Z,41.43
2017-11-16T05:12:36.670Z,41.10
2017-11-16T05:15:06.537Z,43.83
2017-11-16T05:17:36.410Z,42.67
2017-11-16T05:20:06.287Z,42.07
2017-11-16T05:22:36.136Z,42.87
2017-11-16T05:25:06.015Z,42.70
2017-11-16T05:27:35.899Z,43.73
2017-11-16T05:30:05.795Z,42.43
2017-11-16T05:32:35.777Z,41.40
2017-11-16T05:35:05.870Z,43.50
2017-11-16T05:37:35.786Z,42.07
2017-11-16T05:40:05.659Z,43.50
2017-11-16T05:42:36.099Z,42.70
2017-11-16T05:45:05.977Z,41.13
2017-11-16T05:47:36.211Z,44.87
2017-11-16T05:50:06.665Z,41.27
2017-11-16T05:52:36.682Z,40.87
2017-11-16T05:55:06.574Z,40.00
2017-11-16T05:57:36.425Z,43.30
2017-11-16T06:00:06.291Z,43.47
2017-11-16T06:02:36.227Z,40.67
2017-11-16T06:05:06.075Z,42.30
2017-11-16T06:07:35.960Z,40.80
2017-11-16T06:10:05.809Z,42.60
2017-11-16T06:12:35.784Z,40.73
2017-11-16T06:15:05.653Z,42.37
2017-11-16T06:17:35.531Z,40.40
2017-11-16T06:20:05.380Z,41.13
2017-11-16T06:22:35.450Z,38.60
2017-11-16T06:25:05.563Z,39.30
2017-11-16T06:27:35.513Z,41.07
2017-11-16T06:30:05.396Z,40.40
2017-11-16T06:32:35.255Z,39.47
2017-11-16T06:35:05.138Z,41.50
2017-11-16T06:37:34.990Z,39.37
2017-11-16T06:40:04.888Z,38.70
2017-11-16T06:42:34.734Z,40.40
2017-11-16T06:45:04.616Z,40.10
2017-11-16T06:47:34.456Z,39.80
2017-11-16T06:50:04.334Z,38.93
2017-11-16T06:52:34.227Z,38.03
2017-11-16T06:55:04.082Z,39.73
2017-11-16T06:57:33.964Z,37.07
2017-11-16T07:00:03.811Z,41.20
2017-11-16T07:02:33.689Z,40.17
2017-11-16T07:05:03.552Z,36.40
2017-11-16T07:07:33.455Z,70.73
2017-11-16T07:10:03.341Z,37.30
2017-11-16T07:12:33.236Z,38.03
2017-11-16T07:15:03.118Z,34.90
2017-11-16T07:17:32.986Z,37.97
2017-11-16T07:20:02.865Z,34.93
2017-11-16T07:22:32.738Z,35.77
2017-11-16T07:25:02.621Z,35.03
2017-11-16T07:27:33.521Z,33.90
2017-11-16T07:30:03.429Z,34.97
2017-11-16T07:32:33.288Z,36.57
2017-11-16T07:35:03.239Z,35.10
2017-11-16T07:37:33.091Z,31.87
2017-11-16T07:40:02.991Z,33.17
2017-11-16T07:42:32.895Z,32.30
2017-11-16T07:45:02.768Z,33.07
2017-11-16T07:47:32.642Z,31.30
2017-11-16T07:50:02.542Z,32.63
2017-11-16T07:52:32.465Z,30.80
2017-11-16T07:55:02.387Z,32.37
2017-11-16T07:57:32.391Z,28.83
2017-11-16T08:00:02.336Z,29.13
2017-11-16T08:02:32.237Z,29.30
2017-11-16T08:05:02.104Z,28.13
2017-11-16T08:07:32.012Z,28.57
2017-11-16T08:10:01.883Z,28.60
2017-11-16T08:25:31.779Z,26.93
2017-11-16T08:28:01.631Z,27.77
2017-11-16T08:30:31.582Z,26.43
2017-11-16T08:33:01.452Z,28.13
2017-11-16T08:35:31.364Z,26.63
2017-11-16T08:38:01.251Z,28.37
2017-11-16T08:40:31.106Z,27.07
2017-11-16T08:43:01.061Z,30.47
2017-11-16T08:45:30.907Z,27.53
2017-11-16T08:48:00.779Z,27.77
2017-11-16T08:50:30.695Z,27.80
2017-11-16T08:53:00.577Z,26.77
2017-11-16T08:55:30.419Z,27.83
2017-11-16T08:58:00.273Z,28.10
2017-11-16T09:00:30.151Z,27.50
2017-11-16T09:03:00.180Z,26.60
2017-11-16T09:05:30.087Z,27.17
2017-11-16T09:07:59.954Z,28.70
2017-11-16T09:10:30.587Z,27.87
2017-11-16T09:13:00.461Z,26.10
2017-11-16T09:15:30.323Z,27.77
2017-11-16T09:18:00.184Z,27.47
2017-11-16T09:20:30.046Z,29.47
2017-11-16T09:22:59.926Z,27.60
2017-11-16T09:25:29.771Z,28.10
2017-11-16T09:27:59.685Z,29.17
2017-11-16T09:30:29.536Z,28.30
2017-11-16T09:32:59.406Z,30.60
2017-11-16T09:35:29.350Z,31.50
2017-11-16T09:37:59.203Z,29.10
2017-11-16T09:40:29.095Z,30.00
2017-11-16T09:42:58.954Z,29.20
2017-11-16T09:45:28.842Z,31.67
2017-11-16T09:47:58.701Z,28.57
2017-11-16T09:50:28.604Z,31.33
2017-11-16T09:52:58.461Z,32.73
2017-11-16T09:55:28.320Z,32.30
2017-11-16T09:57:58.355Z,28.50
2017-11-16T10:00:28.198Z,28.50
2017-11-16T10:02:58.085Z,29.83
2017-11-16T10:05:27.940Z,30.67
2017-11-16T10:07:57.841Z,29.30
2017-11-16T10:10:27.714Z,29.57
2017-11-16T10:12:57.600Z,29.63
2017-11-16T10:15:27.540Z,31.57
2017-11-16T10:17:57.399Z,30.23
2017-11-16T10:20:27.287Z,29.93
2017-11-16T10:22:57.148Z,28.30
2017-11-16T10:25:27.045Z,28.07
2017-11-16T10:27:56.998Z,27.70
2017-11-16T10:30:26.934Z,26.97
2017-11-16T10:32:56.825Z,26.57
2017-11-16T10:35:26.704Z,26.63
2017-11-16T10:37:56.595Z,28.63
2017-11-16T10:40:26.488Z,27.33
2017-11-16T10:42:56.345Z,24.40
2017-11-16T10:45:26.222Z,23.63
2017-11-16T10:47:56.171Z,23.20
2017-11-16T10:50:26.040Z,23.30
2017-11-16T10:52:55.928Z,24.50
2017-11-16T10:55:25.802Z,24.57
2017-11-16T10:57:55.719Z,22.90
2017-11-16T11:00:25.613Z,23.23
2017-11-16T11:02:55.527Z,22.23
2017-11-16T11:05:25.378Z,22.50
2017-11-16T11:07:55.271Z,22.87
2017-11-16T11:10:25.158Z,22.63
2017-11-16T11:12:55.023Z,23.00
2017-11-16T11:15:24.907Z,23.83
2017-11-16T11:17:54.773Z,22.03
2017-11-16T11:20:24.659Z,22.73
2017-11-16T11:22:54.528Z,22.07
2017-11-16T11:25:24.503Z,21.10
2017-11-16T11:27:54.373Z,21.70
2017-11-16T11:30:24.256Z,22.33
2017-11-16T11:32:54.126Z,20.43
2017-11-16T11:35:24.002Z,20.27
2017-11-16T11:37:53.921Z,20.37
2017-11-16T11:40:23.783Z,20.30
2017-11-16T11:42:53.770Z,23.87
2017-11-16T11:45:23.627Z,19.23
2017-11-16T11:47:53.510Z,20.73
2017-11-16T11:50:24.280Z,20.63
2017-11-16T11:52:54.142Z,22.93
2017-11-16T11:55:24.031Z,18.70
2017-11-16T11:57:53.938Z,20.50
2017-11-16T12:00:23.815Z,20.07
2017-11-16T12:02:53.670Z,20.80
2017-11-16T12:05:23.564Z,20.43
2017-11-16T12:07:53.432Z,21.53
2017-11-16T12:10:23.302Z,20.33
2017-11-16T12:12:53.192Z,19.97
2017-11-16T12:15:23.067Z,19.47
2017-11-16T12:17:53.251Z,19.87
2017-11-16T12:20:23.118Z,19.87
2017-11-16T12:22:52.999Z,18.23
2017-11-16T12:25:22.850Z,19.90
2017-11-16T12:27:52.750Z,18.50
2017-11-16T12:30:22.659Z,19.30
2017-11-16T12:32:52.507Z,19.90
2017-11-16T12:35:22.353Z,16.73
2017-11-16T12:37:52.219Z,17.80
2017-11-16T12:40:22.119Z,18.23
2017-11-16T12:42:51.989Z,19.23
2017-11-16T12:45:21.886Z,17.90
2017-11-16T12:47:51.771Z,16.17
2017-11-16T12:50:21.664Z,16.80
2017-11-16T12:52:51.514Z,16.70
2017-11-16T12:55:21.405Z,17.67
2017-11-16T12:57:51.252Z,18.30
2017-11-16T13:00:21.111Z,18.70
2017-11-16T13:02:51.015Z,19.17
2017-11-16T13:05:20.905Z,18.67
2017-11-16T13:07:50.808Z,21.20
2017-11-16T13:10:20.708Z,20.30
2017-11-16T13:12:50.606Z,20.47
2017-11-16T13:15:20.480Z,19.70
2017-11-16T13:17:50.363Z,18.93
2017-11-16T13:20:20.281Z,20.60
2017-11-16T13:22:50.151Z,19.63
2017-11-16T13:25:20.294Z,18.07
2017-11-16T13:27:50.377Z,21.37
2017-11-16T13:30:20.353Z,20.20
2017-11-16T13:32:50.215Z,18.70
2017-11-16T13:35:20.092Z,16.23
2017-11-16T13:37:50.059Z,16.90
2017-11-16T13:40:19.983Z,16.90
2017-11-16T13:42:50.199Z,18.90
2017-11-16T13:45:20.114Z,17.53
2017-11-16T13:47:50.060Z,20.10
2017-11-16T13:50:20.099Z,20.63
2017-11-16T13:52:50.114Z,19.70
2017-11-16T13:55:20.089Z,19.40
2017-11-16T13:57:50.007Z,20.50
2017-11-16T14:00:19.976Z,21.17
2017-11-16T14:02:49.879Z,19.40
2017-11-16T14:05:19.755Z,20.17
2017-11-16T14:07:49.639Z,18.90
2017-11-16T14:10:19.534Z,19.97
2017-11-16T14:12:49.472Z,18.50
2017-11-16T14:15:19.413Z,21.07
2017-11-16T14:17:49.313Z,19.17
2017-11-16T14:20:19.184Z,20.37
2017-11-16T14:22:49.233Z,20.93
2017-11-16T14:25:19.118Z,21.00
2017-11-16T14:27:49.003Z,19.80
2017-11-16T14:30:18.864Z,19.67
2017-11-16T14:32:48.864Z,23.20
2017-11-16T14:35:18.746Z,21.97
2017-11-16T14:37:48.687Z,23.40
2017-11-16T14:40:18.559Z,23.60
2017-11-16T14:42:48.465Z,25.50
2017-11-16T14:45:18.351Z,25.33
2017-11-16T14:47:48.244Z,25.13
2017-11-16T14:50:18.131Z,24.00
2017-11-16T14:52:48.023Z,24.60
2017-11-16T14:55:18.003Z,27.07
2017-11-16T14:57:47.889Z,25.77
2017-11-16T15:00:17.911Z,24.47
2017-11-16T15:02:47.981Z,27.20
2017-11-16T15:05:17.971Z,27.00
2017-11-16T15:07:47.879Z,27.60
2017-11-16T15:10:17.941Z,27.33
2017-11-16T15:12:47.868Z,27.83
2017-11-16T15:15:17.797Z,29.70
2017-11-16T15:17:47.650Z,28.80
2017-11-16T15:20:17.540Z,28.27
2017-11-16T15:22:47.400Z,30.70
2017-11-16T15:25:17.264Z,30.00
2017-11-16T15:27:47.156Z,25.87
2017-11-16T15:30:17.027Z,29.73
2017-11-16T15:32:46.978Z,28.67
2017-11-16T15:35:16.836Z,29.80
2017-11-16T15:37:46.737Z,28.17
2017-11-16T15:40:16.662Z,27.87
2017-11-16T15:42:46.556Z,29.10
2017-11-16T15:47:52.720Z,31.20
2017-11-16T15:50:22.624Z,28.23
2017-11-16T15:52:52.516Z,27.80
2017-11-16T15:55:22.377Z,29.37
2017-11-16T15:57:52.359Z,30.47
2017-11-16T16:00:22.220Z,28.93
2017-11-16T16:02:52.107Z,28.90
2017-11-16T16:05:22.025Z,30.10
2017-11-16T16:07:51.887Z,28.73
2017-11-16T16:10:21.773Z,28.40
2017-11-16T16:12:51.644Z,30.20
2017-11-16T16:15:21.531Z,29.13
2017-11-16T16:17:51.396Z,29.77
2017-11-16T16:20:21.267Z,26.77
2017-11-16T16:22:51.143Z,27.60
2017-11-16T16:25:21.024Z,30.27
2017-11-16T16:27:50.939Z,31.23
2017-11-16T16:30:20.827Z,31.20
2017-11-16T16:32:50.750Z,32.50
2017-11-16T16:35:20.614Z,34.87
2017-11-16T16:37:50.632Z,32.47
2017-11-16T16:40:20.491Z,30.60
2017-11-16T16:42:50.425Z,32.10
2017-11-16T16:45:20.322Z,29.93
2017-11-16T16:47:50.200Z,32.20
2017-11-16T16:50:20.119Z,31.07
2017-11-16T16:52:50.048Z,32.40
2017-11-16T16:55:20.054Z,32.40
2017-11-16T16:57:49.939Z,31.90
2017-11-16T17:00:19.825Z,31.97
2017-11-16T17:02:49.698Z,30.73
2017-11-16T17:05:19.617Z,32.60
2017-11-16T17:07:49.555Z,31.03
2017-11-16T17:10:19.460Z,31.87
2017-11-16T17:12:49.417Z,31.60
2017-11-16T17:15:19.299Z,31.47
2017-11-16T17:17:49.230Z,32.67
2017-11-16T17:20:19.108Z,29.57
2017-11-16T17:22:49.064Z,31.73
2017-11-16T17:25:18.939Z,30.90
2017-11-16T17:27:48.906Z,33.40
2017-11-16T17:30:18.940Z,31.13
2017-11-16T17:32:48.888Z,31.47
2017-11-16T17:35:18.999Z,31.00
2017-11-16T17:37:48.918Z,30.77
2017-11-16T17:40:18.915Z,29.97
2017-11-16T17:42:48.978Z,29.37
2017-11-16T17:45:18.851Z,31.33
2017-11-16T17:47:48.824Z,33.70
2017-11-16T17:50:18.735Z,31.00
2017-11-16T17:52:48.719Z,31.60
2017-11-16T17:55:18.610Z,33.00
2017-11-16T17:57:48.497Z,25.90
2017-11-16T18:00:18.397Z,31.53
2017-11-16T18:02:48.358Z,32.50
2017-11-16T18:05:18.433Z,34.03
2017-11-16T18:07:48.306Z,34.63
2017-11-16T18:10:18.231Z,30.90
2017-11-16T18:12:48.123Z,34.83
2017-11-16T18:15:18.084Z,33.77
2017-11-16T18:17:48.020Z,34.33
2017-11-16T18:20:17.946Z,33.90
2017-11-16T18:22:47.814Z,35.93
2017-11-16T18:25:17.695Z,36.43
2017-11-16T18:27:47.560Z,36.40
2017-11-16T18:30:17.478Z,34.13
2017-11-16T18:32:47.352Z,33.47
2017-11-16T18:35:17.275Z,34.33
2017-11-16T18:37:47.262Z,34.37
2017-11-16T18:40:17.210Z,37.00
2017-11-16T18:42:47.155Z,36.03
2017-11-16T18:45:17.055Z,37.00
2017-11-16T18:47:47.015Z,38.13
2017-11-16T18:50:16.891Z,25.83
2017-11-16T18:52:46.840Z,37.70
2017-11-16T18:55:16.753Z,36.63
2017-11-16T18:57:46.658Z,39.47
2017-11-16T19:00:16.560Z,37.43
2017-11-16T19:02:46.472Z,37.20
2017-11-16T19:05:16.379Z,37.03
2017-11-16T19:07:46.276Z,41.50
2017-11-16T19:10:16.179Z,39.13
2017-11-16T19:12:46.207Z,38.07
2017-11-16T19:15:16.247Z,37.90
2017-11-16T19:17:46.449Z,39.90
2017-11-16T19:20:16.368Z,37.87
2017-11-16T19:22:46.269Z,39.27
2017-11-16T19:25:16.175Z,38.57
2017-11-16T19:27:46.054Z,36.40
2017-11-16T19:30:15.939Z,40.50
2017-11-16T19:32:45.888Z,36.70
2017-11-16T19:35:15.805Z,40.00
2017-11-16T19:37:45.662Z,38.80
2017-11-16T19:40:15.632Z,39.70
2017-11-16T19:42:45.550Z,39.83
2017-11-16T19:45:15.475Z,40.50
2017-11-16T19:47:45.371Z,40.10
2017-11-16T19:50:15.247Z,40.50
2017-11-16T19:52:45.265Z,40.03
2017-11-16T19:55:15.148Z,42.97
2017-11-16T19:57:45.095Z,41.90
2017-11-16T20:00:14.968Z,39.97
2017-11-16T20:02:44.950Z,37.67
2017-11-16T20:05:14.881Z,41.80
2017-11-16T20:07:44.780Z,41.00
2017-11-16T20:10:14.672Z,40.43
2017-11-16T20:12:44.598Z,42.93
2017-11-16T20:15:14.469Z,40.80
2017-11-16T20:17:44.429Z,37.53
2017-11-16T20:20:15.711Z,39.33
2017-11-16T20:22:45.613Z,38.30
2017-11-16T20:25:15.561Z,36.50
2017-11-16T20:27:45.417Z,41.23
2017-11-16T20:30:16.054Z,36.47
2017-11-16T20:32:45.962Z,39.90
2017-11-16T20:35:15.857Z,39.23
2017-11-16T20:38:00.584Z,38.40
2017-11-16T20:43:54.469Z,39.60
2017-11-16T20:46:33.133Z,38.27
2017-11-16T20:49:08.819Z,39.40
2017-11-16T20:51:44.399Z,37.50
2017-11-16T20:54:20.783Z,37.07
2017-11-16T20:56:50.647Z,41.57
2017-11-16T20:59:20.500Z,40.93
2017-11-16T21:01:50.423Z,39.80
2017-11-16T21:04:20.297Z,41.80
2017-11-16T21:06:50.198Z,40.60
2017-11-16T21:09:20.072Z,42.10
2017-11-16T21:11:49.960Z,41.37
2017-11-16T21:14:19.833Z,38.10
2017-11-16T21:16:49.822Z,42.83
2017-11-16T21:19:19.861Z,40.33
2017-11-16T21:21:49.789Z,43.90
2017-11-16T21:24:19.664Z,41.63
2017-11-16T21:26:49.583Z,37.50
2017-11-16T21:29:19.466Z,40.40
2017-11-16T21:31:49.338Z,42.27
2017-11-16T21:34:19.259Z,39.27
2017-11-16T21:36:49.143Z,42.50
2017-11-16T21:39:19.030Z,41.70
2017-11-16T21:41:48.935Z,43.77
2017-11-16T21:44:18.890Z,40.63
2017-11-16T21:46:48.769Z,39.87
2017-11-16T21:49:18.894Z,41.10
2017-11-16T21:51:48.756Z,43.27
2017-11-16T21:54:18.693Z,41.27
2017-11-16T21:56:48.587Z,41.20
2017-11-16T21:59:18.574Z,40.07
2017-11-16T22:01:48.452Z,44.73
2017-11-16T22:04:19.330Z,41.60
2017-11-16T22:06:49.206Z,43.07
2017-11-16T22:09:19.093Z,44.27
2017-11-16T22:11:49.004Z,43.53
2017-11-16T22:14:18.879Z,41.10
2017-11-16T22:16:48.769Z,44.50
2017-11-16T22:19:18.695Z,42.30
2017-11-16T22:21:48.633Z,46.10
2017-11-16T22:24:18.589Z,43.07
2017-11-16T22:26:48.488Z,41.77
2017-11-16T22:29:18.616Z,40.43
2017-11-16T22:31:48.487Z,35.73
2017-11-16T22:34:18.446Z,31.80
2017-11-16T22:36:48.312Z,26.63
2017-11-16T22:39:18.219Z,25.23
2017-11-16T22:41:48.242Z,20.63
2017-11-16T22:44:18.094Z,19.10
2017-11-16T22:46:48.121Z,15.93
2017-11-16T22:49:18.025Z,14.20
2017-11-16T22:51:47.959Z,9.00
2017-11-16T22:54:17.845Z,7.80
2017-11-16T22:56:47.716Z,6.30
2017-11-16T22:59:17.580Z,6.27
2017-11-16T23:01:48.065Z,5.90
2017-11-16T23:04:18.272Z,6.10
2017-11-16T23:06:48.246Z,4.47
2017-11-16T23:09:18.693Z,4.03
2017-11-16T23:11:48.550Z,5.00
2017-11-16T23:14:18.405Z,4.10
2017-11-16T23:16:48.267Z,4.10
2017-11-16T23:19:18.121Z,3.90
2017-11-16T23:21:48.037Z,3.10
2017-11-16T23:24:17.911Z,2.80
2017-11-16T23:26:47.854Z,2.80
2017-11-16T23:29:17.748Z,2.53
2017-11-16T23:31:47.650Z,2.70
2017-11-16T23:34:17.636Z,3.10
2017-11-16T23:36:47.598Z,3.40
2017-11-16T23:39:17.458Z,2.90
2017-11-16T23:41:47.371Z,2.63
2017-11-16T23:44:17.218Z,2.27
2017-11-16T23:46:47.108Z,3.60
2017-11-16T23:49:17.040Z,2.17
2017-11-16T23:51:46.942Z,2.40
2017-11-16T23:54:16.906Z,2.33
2017-11-16T23:56:46.786Z,2.50
2017-11-16T23:59:16.644Z,2.33
